Time;durP1;ratioP1;P1;durP2;ratioP2;P2;SDS_P1;SDS_P2;PMS_P1;PMS_P2;Temp;Humidity;BMP_temperature;BMP_pressure;BME280_temperature;BME280_humidity;BME280_pressure;Samples;Min_cycle;Max_cycle;Signal;HPM_P1;HPM_P2
2022/12/09 00:00:33;;;;;;;11.63;8.40;;;;;;;-1.17;98.49;151072.13;4985133;28;20429;-76
2022/12/09 00:03:18;;;;;;;18.73;9.47;;;;;;;-1.24;98.40;151055.44;4973745;28;20419;-76
2022/12/09 00:06:08;;;;;;;11.90;7.87;;;;;;;-1.30;98.05;151041.34;4971239;28;20476;-76
2022/12/09 00:08:54;;;;;;;9.13;8.13;;;;;;;-1.35;97.97;151028.53;4983145;28;20406;-76
2022/12/09 00:11:39;;;;;;;9.10;8.10;;;;;;;-1.39;97.88;151017.03;4969788;28;20460;-76
2022/12/09 00:14:25;;;;;;;9.80;7.50;;;;;;;-1.35;98.34;151027.28;4972407;28;20570;-76
2022/12/09 00:17:12;;;;;;;10.80;8.67;;;;;;;-1.31;98.41;151038.81;4979710;28;20449;-76
2022/12/09 00:19:57;;;;;;;11.40;8.00;;;;;;;-1.19;98.04;151067.03;4954212;29;20434;-76
2022/12/09 00:22:43;;;;;;;9.80;7.63;;;;;;;-1.14;97.88;151079.84;4954687;29;20411;-76
2022/12/09 00:25:28;;;;;;;10.00;8.90;;;;;;;-1.13;97.20;151082.38;4962947;28;20959;-76
2022/12/09 00:28:13;;;;;;;8.67;7.17;;;;;;;-1.15;96.92;151077.25;4974365;28;20410;-76
2022/12/09 00:30:59;;;;;;;10.33;7.80;;;;;;;-1.15;98.32;151077.25;4974154;28;20492;-76
2022/12/09 00:33:46;;;;;;;10.53;7.27;;;;;;;-1.28;97.95;151046.50;4971331;28;20804;-76
2022/12/09 00:36:32;;;;;;;9.93;7.67;;;;;;;-1.29;97.80;151043.94;4960372;28;21409;-76
2022/12/09 00:39:17;;;;;;;9.63;6.80;;;;;;;-1.31;98.87;151038.81;4992627;28;20437;-76
2022/12/09 00:42:02;;;;;;;8.23;7.20;;;;;;;-1.39;97.80;151017.03;4982455;28;20457;-76
2022/12/09 00:44:48;;;;;;;7.40;6.70;;;;;;;-1.48;98.00;150995.22;4967350;28;20819;-76
2022/12/09 00:47:33;;;;;;;11.00;7.33;;;;;;;-1.52;98.02;150985.00;4966334;28;20457;-76
2022/12/09 00:50:20;;;;;;;8.23;6.90;;;;;;;-1.56;97.75;150973.47;4960930;28;20501;-76
2022/12/09 00:53:05;;;;;;;8.93;7.20;;;;;;;-1.62;97.65;150959.38;4982185;28;20439;-76
2022/12/09 00:55:51;;;;;;;11.40;7.90;;;;;;;-1.65;98.42;150951.69;4990021;28;20978;-76
2022/12/09 00:58:36;;;;;;;10.23;6.93;;;;;;;-1.71;99.32;150936.28;4977732;28;20804;-76
2022/12/09 01:01:21;;;;;;;7.53;6.50;;;;;;;-1.71;100.00;150936.28;4973770;28;20803;-76
2022/12/09 01:04:08;;;;;;;8.70;7.23;;;;;;;-1.71;99.27;150936.28;4976570;28;20516;-77
2022/12/09 01:06:54;;;;;;;10.60;6.87;;;;;;;-1.68;100.00;150943.97;4952107;29;20904;-76
2022/12/09 01:09:39;;;;;;;8.27;7.00;;;;;;;-1.70;99.38;150937.59;4966003;28;20481;-76
2022/12/09 01:12:25;;;;;;;10.67;7.00;;;;;;;-1.71;100.00;150935.00;4986714;28;20713;-76
2022/12/09 01:15:10;;;;;;;10.27;8.47;;;;;;;-1.76;99.54;150922.19;5005497;28;20463;-76
2022/12/09 01:17:57;;;;;;;9.90;8.30;;;;;;;-1.74;100.00;150928.59;4983132;28;21106;-76
2022/12/09 01:20:42;;;;;;;11.67;9.13;;;;;;;-1.77;100.00;150920.91;4992443;28;20457;-77
2022/12/09 01:23:29;;;;;;;11.30;7.80;;;;;;;-1.79;100.00;150915.78;4997471;28;20420;-77
2022/12/09 01:26:14;;;;;;;10.37;7.30;;;;;;;-1.82;99.61;150908.09;4995727;28;20830;-77
2022/12/09 01:29:00;;;;;;;10.43;7.50;;;;;;;-1.83;99.58;150905.56;4995297;28;20812;-76
2022/12/09 01:31:46;;;;;;;9.00;7.70;;;;;;;-1.88;100.00;150892.75;5000459;28;20933;-77
2022/12/09 01:34:31;;;;;;;7.00;6.30;;;;;;;-1.90;99.80;150887.59;5014980;28;20443;-76
2022/12/09 01:37:17;;;;;;;8.10;6.87;;;;;;;-1.83;100.00;150906.81;4978255;28;20453;-76
2022/12/09 01:40:06;;;;;;;10.27;6.97;;;;;;;-1.82;99.53;150908.09;4989438;28;20460;-77
2022/12/09 01:42:52;;;;;;;7.67;6.30;;;;;;;-1.87;99.79;150895.28;4969123;28;20438;-76
2022/12/09 01:45:42;;;;;;;7.43;6.00;;;;;;;-1.89;100.00;150890.19;4981722;28;20845;-77
2022/12/09 01:48:30;;;;;;;8.70;6.70;;;;;;;-1.90;99.97;150887.59;4976162;28;20477;-76
2022/12/09 01:51:18;;;;;;;8.33;6.30;;;;;;;-1.91;99.80;150886.31;5002001;28;20456;-77
2022/12/09 01:54:04;;;;;;;11.43;7.47;;;;;;;-1.92;100.00;150882.50;5007371;28;20440;-76
2022/12/09 01:56:51;;;;;;;8.27;6.40;;;;;;;-1.92;100.00;150882.50;4986080;28;20456;-76
2022/12/09 01:59:37;;;;;;;6.90;6.20;;;;;;;-1.90;100.00;150887.59;4995672;28;20972;-76
2022/12/09 02:02:22;;;;;;;10.50;6.47;;;;;;;-1.92;100.00;150883.78;4977946;28;20682;-76
2022/12/09 02:05:08;;;;;;;9.50;7.30;;;;;;;-1.91;99.96;150886.31;4975897;28;20968;-76
2022/12/09 02:07:54;;;;;;;9.90;6.60;;;;;;;-1.82;100.00;150908.09;4974474;28;20492;-76
2022/12/09 02:10:44;;;;;;;11.67;7.33;;;;;;;-1.85;100.00;150900.41;5007394;28;20474;-76
2022/12/09 02:13:36;;;;;;;8.10;6.83;;;;;;;-1.85;100.00;150900.41;4981798;28;20485;-76
2022/12/09 02:16:24;;;;;;;10.93;8.23;;;;;;;-1.85;100.00;150901.69;4975357;28;20434;-76
2022/12/09 02:19:17;;;;;;;10.73;8.07;;;;;;;-1.76;100.00;150922.19;4969826;28;20449;-76
2022/12/09 02:22:03;;;;;;;11.90;8.53;;;;;;;-1.67;100.00;150945.28;4992936;28;20450;-76
2022/12/09 02:24:58;;;;;;;10.70;8.70;;;;;;;-1.69;100.00;150940.13;4955539;29;20942;-76
2022/12/09 02:27:47;;;;;;;12.37;10.33;;;;;;;-1.67;100.00;150946.56;4954101;29;20454;-76
2022/12/09 02:30:36;;;;;;;14.03;10.33;;;;;;;-1.64;100.00;150952.97;4979589;28;20794;-76
2022/12/09 02:33:36;;;;;;;13.37;9.80;;;;;;;-1.71;99.88;150935.00;4971725;28;20442;-76
2022/12/09 02:36:27;;;;;;;12.77;9.30;;;;;;;-1.78;100.00;150917.09;4955078;28;20563;-76
2022/12/09 02:39:14;;;;;;;13.50;10.37;;;;;;;-1.96;100.00;150873.50;4960062;28;20497;-76
2022/12/09 02:42:02;;;;;;;15.90;10.17;;;;;;;-2.02;100.00;150856.88;4968059;28;20790;-76
2022/12/09 02:44:50;;;;;;;10.20;8.83;;;;;;;-2.07;100.00;150845.38;4955211;29;21047;-76
2022/12/09 02:47:41;;;;;;;14.03;10.43;;;;;;;-2.09;100.00;150840.22;4940473;28;20469;-76
2022/12/09 02:50:30;;;;;;;10.97;9.80;;;;;;;-2.02;100.00;150856.88;4977550;28;20445;-76
2022/12/09 02:53:18;;;;;;;10.70;9.00;;;;;;;-2.00;100.00;150863.28;4957880;28;20414;-76
2022/12/09 02:56:05;;;;;;;13.50;9.87;;;;;;;-2.01;100.00;150859.41;4973955;28;20599;-76
2022/12/09 02:58:51;;;;;;;8.60;7.63;;;;;;;-1.99;100.00;150864.56;4943607;29;20435;-76
2022/12/09 03:01:48;;;;;;;12.30;8.80;;;;;;;-2.01;100.00;150859.41;4968577;28;20463;-76
2022/12/09 03:04:33;;;;;;;11.73;8.20;;;;;;;-2.03;100.00;150855.59;4970107;28;20570;-76
2022/12/09 03:07:26;;;;;;;10.23;8.60;;;;;;;-2.01;100.00;150859.41;4960133;28;20465;-76
2022/12/09 03:10:17;;;;;;;10.73;7.77;;;;;;;-1.99;100.00;150864.56;4972191;28;20493;-76
2022/12/09 03:13:05;;;;;;;11.43;8.80;;;;;;;-1.96;100.00;150873.50;4974582;28;20470;-76
2022/12/09 03:15:54;;;;;;;11.93;8.00;;;;;;;-1.96;100.00;150873.50;4951860;28;20466;-76
2022/12/09 03:18:42;;;;;;;12.20;8.70;;;;;;;-1.97;100.00;150870.97;4969302;28;20449;-76
2022/12/09 03:21:29;;;;;;;12.33;8.90;;;;;;;-2.02;100.00;150856.88;4986342;28;20436;-76
2022/12/09 03:24:20;;;;;;;11.40;8.37;;;;;;;-2.05;100.00;150849.19;4985915;28;20585;-76
2022/12/09 03:27:09;;;;;;;10.63;8.67;;;;;;;-2.11;100.00;150833.81;4983655;28;21023;-76
2022/12/09 03:29:56;;;;;;;9.60;8.17;;;;;;;-2.14;100.00;150826.13;5002502;28;20484;-76
2022/12/09 03:32:42;;;;;;;11.67;8.17;;;;;;;-2.18;100.00;150815.91;4977936;28;20681;-76
2022/12/09 03:35:31;;;;;;;11.60;8.30;;;;;;;-2.17;100.00;150818.47;4970327;28;20462;-76
2022/12/09 03:38:18;;;;;;;13.93;8.50;;;;;;;-2.21;100.00;150808.19;4973893;28;20873;-76
2022/12/09 03:41:08;;;;;;;10.07;8.10;;;;;;;-2.16;100.00;150821.00;4975126;28;20598;-76
2022/12/09 03:43:58;;;;;;;12.10;8.10;;;;;;;-2.22;100.00;150805.63;4967465;28;20524;-76
2022/12/09 03:46:43;;;;;;;12.10;8.80;;;;;;;-2.17;100.00;150818.47;4985212;28;20527;-76
2022/12/09 03:49:29;;;;;;;11.23;7.97;;;;;;;-1.99;100.00;150864.56;4993554;28;20432;-76
2022/12/09 03:52:17;;;;;;;10.50;7.90;;;;;;;-1.92;100.00;150882.50;4977235;28;20582;-76
2022/12/09 03:55:07;;;;;;;10.20;8.20;;;;;;;-1.99;100.00;150864.56;4972081;28;20453;-76
2022/12/09 03:57:55;;;;;;;11.70;8.30;;;;;;;-2.06;100.00;150847.91;4954030;28;20446;-76
2022/12/09 04:00:42;;;;;;;9.60;7.80;;;;;;;-2.03;100.00;150854.31;4973326;28;20593;-76
2022/12/09 04:03:28;;;;;;;10.37;7.50;;;;;;;-2.00;100.00;150862.00;4972893;28;20453;-76
2022/12/09 04:06:13;;;;;;;8.90;6.57;;;;;;;-1.93;100.00;150879.91;4983680;28;20456;-76
2022/12/09 04:09:06;;;;;;;7.83;5.83;;;;;;;-1.90;100.00;150887.59;5086925;28;20543;-76
2022/12/09 04:11:52;;;;;;;9.57;7.27;;;;;;;-1.93;100.00;150881.19;5065753;28;20569;-75
2022/12/09 04:14:37;;;;;;;8.43;6.43;;;;;;;-1.96;100.00;150872.25;5050157;28;20446;-75
2022/12/09 04:17:22;;;;;;;10.17;6.90;;;;;;;-2.13;100.00;150828.69;5066338;28;20932;-75
2022/12/09 04:20:09;;;;;;;10.27;6.83;;;;;;;-2.17;100.00;150818.47;5082760;28;20440;-75
2022/12/09 04:22:55;;;;;;;8.33;6.43;;;;;;;-2.25;100.00;150797.97;5048615;28;20423;-75
2022/12/09 04:25:42;;;;;;;7.57;6.10;;;;;;;-2.24;100.00;150800.50;5061526;28;20465;-75
2022/12/09 04:28:27;;;;;;;7.00;5.27;;;;;;;-2.08;100.00;150841.50;5060067;28;20980;-75
2022/12/09 04:31:13;;;;;;;9.20;5.20;;;;;;;-1.87;99.20;150895.28;5049130;28;20427;-75
2022/12/09 04:34:00;;;;;;;9.23;6.10;;;;;;;-1.73;98.37;150929.88;5048640;28;20566;-75
2022/12/09 04:36:45;;;;;;;8.63;5.93;;;;;;;-1.70;99.83;150938.88;5070787;28;20947;-75
2022/12/09 04:39:30;;;;;;;7.30;6.20;;;;;;;-1.67;97.44;150945.28;5062279;28;20437;-75
2022/12/09 04:42:17;;;;;;;8.23;6.13;;;;;;;-1.63;96.60;150956.78;5076855;28;20444;-75
2022/12/09 04:45:02;;;;;;;9.53;7.17;;;;;;;-1.57;97.28;150970.91;5061785;28;20463;-75
2022/12/09 04:47:47;;;;;;;9.70;6.50;;;;;;;-1.57;97.07;150970.91;5077889;28;21030;-75
2022/12/09 04:50:33;;;;;;;8.60;6.07;;;;;;;-1.52;96.35;150985.00;5067416;28;20897;-75
2022/12/09 04:53:18;;;;;;;10.47;6.60;;;;;;;-1.48;95.74;150995.22;5068212;28;20429;-75
2022/12/09 04:56:06;;;;;;;10.00;6.27;;;;;;;-1.45;95.88;151001.63;5056061;28;20449;-75
2022/12/09 04:58:53;;;;;;;9.33;6.47;;;;;;;-1.38;95.44;151020.84;5052802;28;21066;-75
2022/12/09 05:01:39;;;;;;;8.80;6.63;;;;;;;-1.41;95.46;151013.19;5055365;28;20800;-75
2022/12/09 05:04:24;;;;;;;9.80;7.53;;;;;;;-1.39;95.21;151018.31;5047525;28;20407;-75
2022/12/09 05:07:10;;;;;;;7.77;6.17;;;;;;;-1.43;95.98;151006.78;5063298;28;20547;-75
2022/12/09 05:09:56;;;;;;;8.37;6.33;;;;;;;-1.47;96.66;150997.81;5073470;28;20436;-75
2022/12/09 05:12:42;;;;;;;9.40;7.00;;;;;;;-1.47;96.04;150997.81;5081153;28;20449;-75
2022/12/09 05:15:29;;;;;;;11.00;6.90;;;;;;;-1.50;97.27;150988.81;5059437;28;20500;-75
2022/12/09 05:18:14;;;;;;;7.60;6.40;;;;;;;-1.50;96.92;150990.09;5058139;28;20955;-75
2022/12/09 05:20:59;;;;;;;9.43;6.80;;;;;;;-1.46;96.29;151000.38;5048923;28;20466;-75
2022/12/09 05:23:45;;;;;;;13.17;8.90;;;;;;;-1.49;96.78;150991.41;5042390;28;20442;-75
2022/12/09 05:26:31;;;;;;;13.37;7.63;;;;;;;-1.51;97.59;150986.28;5040939;28;20446;-75
2022/12/09 05:29:17;;;;;;;12.27;7.60;;;;;;;-1.53;97.70;150981.13;5051501;28;20470;-75
2022/12/09 05:32:04;;;;;;;9.87;7.30;;;;;;;-1.54;98.29;150978.59;5055004;28;20781;-76
2022/12/09 05:34:49;;;;;;;9.33;6.47;;;;;;;-1.55;97.70;150977.28;5046650;28;20431;-75
2022/12/09 05:37:36;;;;;;;10.47;6.97;;;;;;;-1.54;98.65;150979.88;5051486;28;20462;-76
2022/12/09 05:40:24;;;;;;;9.23;7.10;;;;;;;-1.54;98.52;150979.88;5046853;28;20558;-76
2022/12/09 05:43:09;;;;;;;9.60;7.40;;;;;;;-1.47;97.89;150997.81;5055659;28;20467;-76
2022/12/09 05:45:55;;;;;;;11.33;7.93;;;;;;;-1.52;98.57;150985.00;5044897;28;20502;-76
2022/12/09 05:48:42;;;;;;;11.03;7.70;;;;;;;-1.48;98.10;150993.94;5042574;28;20525;-75
2022/12/09 05:51:29;;;;;;;9.10;7.63;;;;;;;-1.44;97.79;151005.50;5045203;28;20450;-76
2022/12/09 05:54:14;;;;;;;9.70;8.27;;;;;;;-1.39;96.30;151018.31;5034737;28;20430;-76
2022/12/09 05:57:02;;;;;;;10.23;8.37;;;;;;;-1.35;96.11;151028.53;5038467;28;20442;-75
2022/12/09 05:59:47;;;;;;;9.77;7.53;;;;;;;-1.28;95.36;151046.50;5039317;28;20624;-76
2022/12/09 06:02:33;;;;;;;10.57;8.50;;;;;;;-1.28;96.53;151045.22;5053255;28;20426;-76
2022/12/09 06:05:19;;;;;;;10.63;8.17;;;;;;;-1.25;95.68;151054.22;5048357;28;20461;-76
2022/12/09 06:08:05;;;;;;;10.60;7.30;;;;;;;-1.30;95.24;151041.34;5039141;28;20478;-76
2022/12/09 06:10:51;;;;;;;11.10;8.33;;;;;;;-1.33;97.04;151032.41;5050024;28;20426;-76
2022/12/09 06:13:36;;;;;;;11.03;7.90;;;;;;;-1.27;95.10;151049.06;5048973;28;20517;-76
2022/12/09 06:16:22;;;;;;;12.50;8.70;;;;;;;-1.29;95.59;151042.66;5043941;28;20801;-76
2022/12/09 06:19:09;;;;;;;12.00;8.60;;;;;;;-1.30;97.01;151041.34;5043322;28;20504;-76
2022/12/09 06:21:55;;;;;;;11.60;9.00;;;;;;;-1.32;96.49;151036.22;5039821;28;21651;-76
2022/12/09 06:24:41;;;;;;;13.57;9.27;;;;;;;-1.30;96.22;151041.34;5042897;28;20439;-76
2022/12/09 06:27:26;;;;;;;12.70;8.97;;;;;;;-1.31;96.15;151038.81;5037814;28;20466;-76
2022/12/09 06:30:11;;;;;;;14.90;8.87;;;;;;;-1.32;97.06;151036.22;5040614;28;20451;-76
2022/12/09 06:32:57;;;;;;;11.40;8.37;;;;;;;-1.31;97.80;151037.53;5042674;28;20441;-76
2022/12/09 06:35:42;;;;;;;12.90;9.47;;;;;;;-1.29;96.90;151043.94;5042724;28;20419;-76
2022/12/09 06:38:29;;;;;;;11.30;8.70;;;;;;;-1.27;96.71;151049.06;5044656;28;20445;-76
2022/12/09 06:41:15;;;;;;;11.30;8.70;;;;;;;-1.25;96.27;151052.91;5045158;28;20469;-76
2022/12/09 06:44:00;;;;;;;11.57;8.30;;;;;;;-1.30;96.89;151041.34;5042582;28;20428;-76
2022/12/09 06:46:46;;;;;;;13.57;9.80;;;;;;;-1.29;97.34;151043.94;5040487;28;20442;-76
2022/12/09 06:49:31;;;;;;;12.60;9.13;;;;;;;-1.24;97.00;151056.75;5030495;28;20969;-76
2022/12/09 06:52:16;;;;;;;12.97;9.60;;;;;;;-1.16;95.99;151074.66;5040032;28;20458;-76
2022/12/09 06:55:03;;;;;;;11.30;9.07;;;;;;;-1.17;95.86;151072.13;5043349;28;20453;-76
2022/12/09 06:57:48;;;;;;;12.37;8.90;;;;;;;-1.16;95.98;151074.66;5050319;28;20830;-76
2022/12/09 07:00:34;;;;;;;11.80;8.63;;;;;;;-1.15;95.84;151077.25;5048455;28;20437;-76
2022/12/09 07:03:19;;;;;;;15.03;10.27;;;;;;;-1.08;94.72;151096.47;5040103;28;20523;-76
2022/12/09 07:06:04;;;;;;;12.87;9.80;;;;;;;-1.08;95.23;151095.19;5048521;28;20489;-76
2022/12/09 07:08:49;;;;;;;12.80;9.87;;;;;;;-1.06;95.11;151100.34;5070658;28;20638;-76
2022/12/09 07:11:36;;;;;;;13.70;10.60;;;;;;;-1.03;95.24;151108.06;5055827;28;20450;-75
2022/12/09 07:14:22;;;;;;;11.87;9.17;;;;;;;-0.98;95.50;151120.88;5044766;28;21057;-76
2022/12/09 07:17:07;;;;;;;10.80;9.63;;;;;;;-1.03;95.26;151108.06;5066345;28;20456;-76
2022/12/09 07:19:53;;;;;;;13.20;10.00;;;;;;;-1.01;95.76;151113.16;5045516;28;20537;-76
2022/12/09 07:22:38;;;;;;;12.07;8.70;;;;;;;-0.98;95.81;151120.88;5047858;28;20457;-76
2022/12/09 07:25:23;;;;;;;13.97;10.67;;;;;;;-0.98;95.92;151120.88;5039559;28;20941;-76
2022/12/09 07:28:10;;;;;;;12.80;10.73;;;;;;;-0.93;95.62;151134.97;5036458;28;20471;-76
2022/12/09 07:30:55;;;;;;;13.57;9.40;;;;;;;-0.89;95.96;151145.22;5037685;28;20445;-76
2022/12/09 07:33:41;;;;;;;13.70;9.80;;;;;;;-0.87;94.86;151149.03;5046205;28;20497;-76
2022/12/09 07:36:28;;;;;;;12.60;10.60;;;;;;;-0.88;94.59;151146.50;5036821;28;20562;-76
2022/12/09 07:39:15;;;;;;;19.50;12.40;;;;;;;-0.89;94.87;151145.22;5046873;28;20421;-76
2022/12/09 07:42:00;;;;;;;16.67;11.10;;;;;;;-0.89;96.20;151143.91;5050536;28;20790;-76
2022/12/09 07:44:50;;;;;;;15.50;11.60;;;;;;;-0.91;96.67;151138.78;5045283;28;20578;-76
2022/12/09 07:47:35;;;;;;;17.87;12.80;;;;;;;-0.94;97.26;151131.09;5044767;28;20450;-76
2022/12/09 07:50:20;;;;;;;17.70;11.67;;;;;;;-0.95;96.38;151128.50;5042049;28;20442;-76
2022/12/09 07:53:05;;;;;;;14.67;11.67;;;;;;;-0.91;96.85;151138.78;5042292;28;20445;-76
2022/12/09 07:55:51;;;;;;;12.73;11.17;;;;;;;-0.97;97.38;151124.69;5040028;28;20926;-76
2022/12/09 07:58:36;;;;;;;16.17;12.33;;;;;;;-0.93;98.15;151134.97;5036955;28;20470;-76
2022/12/09 08:01:25;;;;;;;16.70;11.57;;;;;;;-0.89;98.24;151143.91;5039243;28;20431;-75
2022/12/09 08:04:11;;;;;;;14.33;10.33;;;;;;;-0.85;97.41;151155.44;5045660;28;20504;-76
2022/12/09 08:06:56;;;;;;;13.97;9.90;;;;;;;-0.80;96.94;151167.00;5046227;28;20447;-76
2022/12/09 08:09:41;;;;;;;13.10;10.63;;;;;;;-0.74;96.99;151182.38;5044075;28;20972;-76
2022/12/09 08:12:26;;;;;;;12.37;10.77;;;;;;;-0.71;97.90;151191.34;5038651;28;20505;-75
2022/12/09 08:15:12;;;;;;;16.67;10.23;;;;;;;-0.66;97.51;151202.88;5043953;28;20572;-75
2022/12/09 08:17:59;;;;;;;13.47;11.23;;;;;;;-0.62;96.33;151213.19;5045216;28;20457;-75
2022/12/09 08:20:44;;;;;;;14.90;11.50;;;;;;;-0.53;95.93;151236.22;5042251;28;20443;-75
2022/12/09 08:23:29;;;;;;;12.03;9.67;;;;;;;-0.47;95.65;151251.63;5041395;28;20485;-75
2022/12/09 08:26:16;;;;;;;14.17;9.30;;;;;;;-0.42;95.11;151263.16;5039499;28;20460;-75
2022/12/09 08:29:01;;;;;;;12.77;9.93;;;;;;;-0.39;95.49;151272.16;5039291;28;20463;-75
2022/12/09 08:31:47;;;;;;;16.20;11.40;;;;;;;-0.40;95.84;151268.34;5034522;28;20423;-75
2022/12/09 08:34:33;;;;;;;14.73;11.27;;;;;;;-0.45;96.14;151256.75;5039842;28;20454;-75
2022/12/09 08:37:19;;;;;;;14.67;10.13;;;;;;;-0.42;96.72;151264.47;5044605;28;20794;-75
2022/12/09 08:40:06;;;;;;;13.90;10.33;;;;;;;-0.44;97.50;151259.34;5046025;28;20892;-75
2022/12/09 08:42:51;;;;;;;16.17;11.50;;;;;;;-0.44;97.03;151259.34;5038622;28;20789;-75
2022/12/09 08:45:38;;;;;;;15.73;11.90;;;;;;;-0.40;96.55;151269.63;5042861;28;20492;-75
2022/12/09 08:48:23;;;;;;;14.70;10.80;;;;;;;-0.38;95.54;151274.75;5041431;28;20465;-75
2022/12/09 08:51:11;;;;;;;17.13;11.83;;;;;;;-0.33;96.20;151287.56;5035390;28;20446;-75
2022/12/09 08:53:58;;;;;;;15.97;11.20;;;;;;;-0.32;97.10;151290.09;5040013;28;20457;-75
2022/12/09 08:56:45;;;;;;;20.40;11.80;;;;;;;-0.32;97.52;151290.09;5040002;28;20430;-75
2022/12/09 08:59:30;;;;;;;16.80;11.67;;;;;;;-0.27;97.86;151302.97;5047526;28;20446;-75
2022/12/09 09:02:16;;;;;;;15.43;11.73;;;;;;;-0.25;97.15;151308.09;5050006;28;20474;-75
2022/12/09 09:05:01;;;;;;;15.87;11.50;;;;;;;-0.24;97.21;151310.63;5043869;28;20764;-75
2022/12/09 09:07:48;;;;;;;15.77;10.50;;;;;;;-0.25;97.70;151306.81;5049610;28;20985;-75
2022/12/09 09:10:37;;;;;;;14.57;11.23;;;;;;;-0.26;97.51;151305.50;5044051;28;20501;-75
2022/12/09 09:13:26;;;;;;;13.77;10.70;;;;;;;-0.26;97.81;151305.50;5043248;28;20989;-75
2022/12/09 09:16:17;;;;;;;15.93;12.17;;;;;;;-0.32;97.71;151290.09;5045222;28;20582;-76
2022/12/09 09:19:13;;;;;;;17.00;11.03;;;;;;;-0.36;97.70;151279.88;5044734;28;20447;-76
2022/12/09 09:21:58;;;;;;;14.17;11.27;;;;;;;-0.35;97.50;151282.44;5046372;28;21084;-76
2022/12/09 09:24:45;;;;;;;17.53;11.70;;;;;;;-0.29;97.79;151296.56;5049796;28;20447;-76
2022/12/09 09:27:31;;;;;;;19.77;11.53;;;;;;;-0.32;96.94;151290.09;5053626;28;20960;-76
2022/12/09 09:30:16;;;;;;;15.00;11.90;;;;;;;-0.27;97.55;151302.97;5051105;28;20463;-76
2022/12/09 09:33:02;;;;;;;13.03;10.80;;;;;;;-0.28;97.64;151300.41;5048167;28;20433;-76
2022/12/09 09:35:54;;;;;;;19.00;12.03;;;;;;;-0.28;97.78;151299.09;5032721;28;20765;-76
2022/12/09 09:38:40;;;;;;;16.70;12.97;;;;;;;-0.28;96.68;151300.41;5040193;28;20540;-76
2022/12/09 09:41:41;;;;;;;15.63;12.27;;;;;;;-0.34;97.71;151284.97;5052623;28;20865;-76
2022/12/09 09:44:29;;;;;;;18.67;12.63;;;;;;;-0.31;97.89;151291.41;5054172;28;20410;-76
2022/12/09 09:47:16;;;;;;;20.93;12.30;;;;;;;-0.28;98.22;151300.41;5051764;28;21057;-76
2022/12/09 09:50:04;;;;;;;16.40;12.40;;;;;;;-0.22;97.88;151315.81;5034043;28;20586;-76
2022/12/09 09:52:52;;;;;;;16.50;11.73;;;;;;;-0.17;98.16;151328.63;5035963;28;20419;-76
2022/12/09 09:55:43;;;;;;;16.80;11.57;;;;;;;-0.18;97.77;151326.03;5037119;28;20481;-75
2022/12/09 09:58:35;;;;;;;18.23;12.80;;;;;;;-0.16;98.63;151331.16;5050409;28;21048;-76
2022/12/09 10:01:21;;;;;;;18.43;13.33;;;;;;;-0.13;98.42;151337.56;5053398;28;20434;-76
2022/12/09 10:04:14;;;;;;;15.60;12.43;;;;;;;-0.13;99.15;151338.88;5048066;28;20513;-75
2022/12/09 10:07:02;;;;;;;16.57;12.20;;;;;;;-0.08;98.31;151351.69;5049180;28;20494;-76
2022/12/09 10:09:52;;;;;;;19.33;14.10;;;;;;;-0.11;98.57;151344.00;5033350;28;20447;-76
2022/12/09 10:12:50;;;;;;;19.90;13.60;;;;;;;-0.07;98.09;151352.97;5035442;28;20442;-75
2022/12/09 10:15:42;;;;;;;16.93;12.70;;;;;;;-0.09;99.08;151349.16;5051877;28;20446;-75
2022/12/09 10:18:31;;;;;;;17.70;12.50;;;;;;;-0.04;99.22;151360.69;5053433;28;20435;-76
2022/12/09 10:21:18;;;;;;;19.77;13.80;;;;;;;0.01;98.31;151373.53;5053353;28;20505;-75
2022/12/09 10:24:19;;;;;;;17.13;12.73;;;;;;;-0.01;99.08;151368.41;5051923;28;20454;-75
2022/12/09 10:27:11;;;;;;;14.53;12.53;;;;;;;0.00;98.89;151370.97;5046044;28;20431;-75
2022/12/09 10:29:59;;;;;;;15.60;11.80;;;;;;;-0.03;98.96;151364.53;5037631;28;20548;-75
2022/12/09 10:32:46;;;;;;;15.00;12.20;;;;;;;0.01;98.92;151373.53;5047468;28;20455;-76
2022/12/09 10:35:33;;;;;;;19.50;12.50;;;;;;;-0.01;99.85;151369.69;5031882;28;20392;-75
2022/12/09 10:38:20;;;;;;;21.20;13.43;;;;;;;0.03;99.34;151378.63;5043763;28;20799;-75
2022/12/09 10:41:12;;;;;;;17.77;13.10;;;;;;;0.07;99.84;151387.63;5048122;28;20438;-76
2022/12/09 10:44:17;;;;;;;18.40;13.30;;;;;;;0.17;98.97;151413.28;5061548;28;20454;-75
2022/12/09 10:47:03;;;;;;;18.60;12.70;;;;;;;0.18;98.99;151417.19;5032670;28;20489;-76
2022/12/09 10:49:52;;;;;;;15.87;12.63;;;;;;;0.25;98.59;151433.84;5031779;28;21024;-76
2022/12/09 10:52:43;;;;;;;18.37;13.50;;;;;;;0.13;98.44;151403.06;5050005;28;20941;-75
2022/12/09 10:55:31;;;;;;;19.37;14.03;;;;;;;0.10;99.37;151396.63;5050564;28;20999;-75
2022/12/09 10:58:19;;;;;;;19.53;13.63;;;;;;;0.14;100.00;151405.59;5048742;28;20645;-75
2022/12/09 11:01:08;;;;;;;23.87;13.33;;;;;;;0.15;99.78;151408.19;5043260;28;20445;-76
2022/12/09 11:03:53;;;;;;;19.60;13.70;;;;;;;0.15;99.56;151408.19;5048123;28;20938;-76
2022/12/09 11:06:41;;;;;;;19.83;13.87;;;;;;;0.19;100.00;151418.41;5032097;28;20443;-76
2022/12/09 11:09:29;;;;;;;20.13;13.70;;;;;;;0.23;100.00;151428.72;5038109;28;21064;-75
2022/12/09 11:12:18;;;;;;;20.93;14.07;;;;;;;0.23;100.00;151428.72;5052188;28;20642;-75
2022/12/09 11:15:06;;;;;;;18.77;13.90;;;;;;;0.22;99.97;151426.13;5043786;28;20565;-76
2022/12/09 11:17:57;;;;;;;20.10;14.37;;;;;;;0.16;100.00;151412.00;5032057;28;20435;-75
2022/12/09 11:20:43;;;;;;;20.03;14.17;;;;;;;0.18;100.00;151417.19;5063622;28;20435;-75
2022/12/09 11:23:29;;;;;;;17.30;13.70;;;;;;;0.19;100.00;151419.72;5048340;28;20462;-75
2022/12/09 11:26:23;;;;;;;16.80;13.30;;;;;;;0.20;100.00;151421.00;5050459;28;20518;-75
2022/12/09 11:29:16;;;;;;;22.37;14.83;;;;;;;0.19;100.00;151418.41;5047672;28;20475;-76
2022/12/09 11:32:02;;;;;;;20.67;15.20;;;;;;;0.27;100.00;151438.97;5051472;28;20778;-76
2022/12/09 11:34:47;;;;;;;19.53;15.33;;;;;;;0.30;100.00;151447.97;5032395;28;20752;-75
2022/12/09 11:37:34;;;;;;;20.80;14.23;;;;;;;0.35;100.00;151460.78;5042760;28;20458;-75
2022/12/09 11:40:20;;;;;;;18.90;15.07;;;;;;;0.36;100.00;151462.09;5040269;28;20925;-75
2022/12/09 11:43:06;;;;;;;21.17;14.97;;;;;;;0.35;100.00;151460.78;5032117;28;20498;-75
2022/12/09 11:45:52;;;;;;;20.73;14.97;;;;;;;0.33;100.00;151454.38;5038163;28;20446;-75
2022/12/09 11:48:37;;;;;;;22.20;15.40;;;;;;;0.41;100.00;151474.91;5043464;28;20517;-75
2022/12/09 11:51:26;;;;;;;21.00;13.70;;;;;;;0.40;100.00;151472.31;5032816;28;20860;-75
2022/12/09 11:54:13;;;;;;;22.97;15.60;;;;;;;0.42;100.00;151477.50;5031667;28;20498;-76
2022/12/09 11:57:00;;;;;;;22.30;15.20;;;;;;;0.44;100.00;151483.91;5050136;28;20568;-76
2022/12/09 11:59:49;;;;;;;23.17;16.20;;;;;;;0.49;100.00;151496.75;5035785;28;20490;-76
2022/12/09 12:02:38;;;;;;;19.77;15.87;;;;;;;0.50;100.00;151499.28;5031777;28;20779;-75
2022/12/09 12:05:26;;;;;;;23.83;15.50;;;;;;;0.43;100.00;151480.03;5048876;28;20462;-75
2022/12/09 12:08:17;;;;;;;17.90;14.03;;;;;;;0.43;100.00;151481.31;5033987;28;20589;-76
2022/12/09 12:11:06;;;;;;;21.37;14.93;;;;;;;0.48;100.00;151492.88;5030515;28;20599;-76
2022/12/09 12:13:59;;;;;;;18.70;15.23;;;;;;;0.45;100.00;151486.44;5043106;28;20597;-76
2022/12/09 12:16:51;;;;;;;21.17;16.07;;;;;;;0.46;100.00;151487.75;5034494;28;20529;-76
2022/12/09 12:19:38;;;;;;;21.07;15.30;;;;;;;0.46;100.00;151487.75;5044327;28;20417;-76
2022/12/09 12:22:38;;;;;;;19.93;15.23;;;;;;;0.49;100.00;151496.75;5050392;28;20497;-75
2022/12/09 12:25:31;;;;;;;20.57;14.40;;;;;;;0.44;100.00;151482.63;5050770;28;20800;-75
2022/12/09 12:28:26;;;;;;;22.30;14.80;;;;;;;0.47;100.00;151490.34;5050896;28;20891;-76
2022/12/09 12:31:23;;;;;;;24.30;15.50;;;;;;;0.48;100.00;151492.88;5039618;28;20640;-75
2022/12/09 12:34:14;;;;;;;25.30;16.30;;;;;;;0.44;100.00;151482.63;5045356;28;20546;-76
2022/12/09 12:37:06;;;;;;;25.30;17.80;;;;;;;0.49;100.00;151496.75;5054881;28;20442;-76
2022/12/09 12:39:59;;;;;;;26.70;16.57;;;;;;;0.49;100.00;151495.44;5054114;28;20430;-76
2022/12/09 12:49:11;;;;;;;23.97;16.37;;;;;;;0.51;100.00;151500.56;5036124;28;20478;-76
2022/12/09 12:52:01;;;;;;;21.83;14.40;;;;;;;0.54;100.00;151508.28;5035269;28;20562;-76